sensor_id;sensor_type;location;lat;lon;timestamp;pressure;altitude;pressure_sealevel;temperature
18713;BMP280;9485;49.386;8.674;2022-08-11T00:02:34;100790.44;;;26.93
18713;BMP280;9485;49.386;8.674;2022-08-11T00:07:56;100804.28;;;26.85
18713;BMP280;9485;49.386;8.674;2022-08-11T00:13:18;100803.28;;;26.73
18713;BMP280;9485;49.386;8.674;2022-08-11T00:18:43;100804.13;;;26.66
18713;BMP280;9485;49.386;8.674;2022-08-11T00:24:05;100794.38;;;26.61
18713;BMP280;9485;49.386;8.674;2022-08-11T00:29:27;100790.69;;;26.61
18713;BMP280;9485;49.386;8.674;2022-08-11T00:34:49;100802.28;;;26.61
18713;BMP280;9485;49.386;8.674;2022-08-11T00:40:22;100791.63;;;26.63
18713;BMP280;9485;49.386;8.674;2022-08-11T00:46:10;100798.03;;;26.62
18713;BMP280;9485;49.386;8.674;2022-08-11T00:51:49;100800.91;;;26.62
18713;BMP280;9485;49.386;8.674;2022-08-11T00:57:37;100790.53;;;26.59
18713;BMP280;9485;49.386;8.674;2022-08-11T01:03:33;100792.34;;;26.55
18713;BMP280;9485;49.386;8.674;2022-08-11T01:09:40;100798.72;;;26.53
18713;BMP280;9485;49.386;8.674;2022-08-11T01:15:48;100798.56;;;26.51
18713;BMP280;9485;49.386;8.674;2022-08-11T01:21:58;100794.56;;;26.47
18713;BMP280;9485;49.386;8.674;2022-08-11T01:35:02;100798.38;;;26.32
18713;BMP280;9485;49.386;8.674;2022-08-11T01:41:00;100795.41;;;26.23
18713;BMP280;9485;49.386;8.674;2022-08-11T01:46:31;100792.25;;;26.11
18713;BMP280;9485;49.386;8.674;2022-08-11T01:52:14;100798.56;;;26.00
18713;BMP280;9485;49.386;8.674;2022-08-11T01:57:43;100804.69;;;25.87
18713;BMP280;9485;49.386;8.674;2022-08-11T02:03:15;100803.81;;;25.78
18713;BMP280;9485;49.386;8.674;2022-08-11T02:08:54;100813.63;;;25.82
18713;BMP280;9485;49.386;8.674;2022-08-11T02:14:27;100808.59;;;25.82
18713;BMP280;9485;49.386;8.674;2022-08-11T02:19:56;100800.88;;;25.85
18713;BMP280;9485;49.386;8.674;2022-08-11T02:26:01;100803.16;;;25.86
18713;BMP280;9485;49.386;8.674;2022-08-11T02:31:39;100792.50;;;25.89
18713;BMP280;9485;49.386;8.674;2022-08-11T02:37:26;100789.00;;;25.90
18713;BMP280;9485;49.386;8.674;2022-08-11T02:43:08;100794.81;;;25.90
18713;BMP280;9485;49.386;8.674;2022-08-11T02:48:47;100793.88;;;25.88
18713;BMP280;9485;49.386;8.674;2022-08-11T02:54:36;100788.09;;;25.88
18713;BMP280;9485;49.386;8.674;2022-08-11T03:00:06;100791.75;;;25.88
18713;BMP280;9485;49.386;8.674;2022-08-11T03:05:44;100787.75;;;25.84
18713;BMP280;9485;49.386;8.674;2022-08-11T03:11:16;100790.47;;;25.82
18713;BMP280;9485;49.386;8.674;2022-08-11T03:17:15;100782.22;;;25.79
18713;BMP280;9485;49.386;8.674;2022-08-11T03:22:51;100788.59;;;25.77
18713;BMP280;9485;49.386;8.674;2022-08-11T03:28:26;100784.78;;;25.75
18713;BMP280;9485;49.386;8.674;2022-08-11T03:33:53;100789.56;;;25.72
18713;BMP280;9485;49.386;8.674;2022-08-11T03:39:53;100791.53;;;25.70
18713;BMP280;9485;49.386;8.674;2022-08-11T03:45:25;100796.47;;;25.60
18713;BMP280;9485;49.386;8.674;2022-08-11T03:51:05;100794.72;;;25.57
18713;BMP280;9485;49.386;8.674;2022-08-11T04:03:26;100794.03;;;25.49
18713;BMP280;9485;49.386;8.674;2022-08-11T04:10:06;100802.19;;;25.43
18713;BMP280;9485;49.386;8.674;2022-08-11T04:16:14;100803.00;;;25.36
18713;BMP280;9485;49.386;8.674;2022-08-11T04:28:20;100791.69;;;25.30
18713;BMP280;9485;49.386;8.674;2022-08-11T04:34:35;100802.13;;;25.26
18713;BMP280;9485;49.386;8.674;2022-08-11T04:40:37;100806.72;;;25.29
18713;BMP280;9485;49.386;8.674;2022-08-11T04:46:32;100808.44;;;25.32
18713;BMP280;9485;49.386;8.674;2022-08-11T04:52:17;100805.72;;;25.34
18713;BMP280;9485;49.386;8.674;2022-08-11T04:58:16;100803.59;;;25.34
18713;BMP280;9485;49.386;8.674;2022-08-11T05:04:44;100804.97;;;25.33
18713;BMP280;9485;49.386;8.674;2022-08-11T05:10:46;100816.72;;;25.35
18713;BMP280;9485;49.386;8.674;2022-08-11T05:16:10;100815.88;;;25.42
18713;BMP280;9485;49.386;8.674;2022-08-11T05:21:56;100808.75;;;25.43
18713;BMP280;9485;49.386;8.674;2022-08-11T05:27:38;100805.97;;;25.53
18713;BMP280;9485;49.386;8.674;2022-08-11T05:33:23;100802.06;;;25.58
18713;BMP280;9485;49.386;8.674;2022-08-11T05:39:14;100813.53;;;25.65
18713;BMP280;9485;49.386;8.674;2022-08-11T05:45:03;100806.16;;;25.72
18713;BMP280;9485;49.386;8.674;2022-08-11T05:50:50;100810.97;;;25.77
18713;BMP280;9485;49.386;8.674;2022-08-11T05:56:32;100819.50;;;25.91
18713;BMP280;9485;49.386;8.674;2022-08-11T06:02:00;100823.25;;;26.01
18713;BMP280;9485;49.386;8.674;2022-08-11T06:07:28;100827.16;;;26.13
18713;BMP280;9485;49.386;8.674;2022-08-11T06:12:52;100817.22;;;26.24
18713;BMP280;9485;49.386;8.674;2022-08-11T06:18:14;100822.47;;;26.35
18713;BMP280;9485;49.386;8.674;2022-08-11T06:23:36;100826.44;;;26.47
18713;BMP280;9485;49.386;8.674;2022-08-11T06:29:02;100824.53;;;26.58
18713;BMP280;9485;49.386;8.674;2022-08-11T06:34:39;100823.84;;;26.67
18713;BMP280;9485;49.386;8.674;2022-08-11T06:40:08;100831.13;;;26.85
18713;BMP280;9485;49.386;8.674;2022-08-11T06:45:37;100835.44;;;26.94
18713;BMP280;9485;49.386;8.674;2022-08-11T06:51:03;100827.63;;;27.13
18713;BMP280;9485;49.386;8.674;2022-08-11T06:56:35;100838.47;;;27.84
18713;BMP280;9485;49.386;8.674;2022-08-11T07:02:21;100850.78;;;29.45
18713;BMP280;9485;49.386;8.674;2022-08-11T07:08:21;100851.06;;;31.05
18713;BMP280;9485;49.386;8.674;2022-08-11T07:14:04;100846.44;;;32.14
18713;BMP280;9485;49.386;8.674;2022-08-11T07:19:50;100849.69;;;33.04
18713;BMP280;9485;49.386;8.674;2022-08-11T07:25:33;100849.81;;;33.82
18713;BMP280;9485;49.386;8.674;2022-08-11T07:31:19;100860.19;;;34.39
18713;BMP280;9485;49.386;8.674;2022-08-11T07:36:51;100848.31;;;34.93
18713;BMP280;9485;49.386;8.674;2022-08-11T07:42:17;100849.63;;;35.19
18713;BMP280;9485;49.386;8.674;2022-08-11T07:47:41;100849.84;;;35.38
18713;BMP280;9485;49.386;8.674;2022-08-11T07:53:21;100839.00;;;35.71
18713;BMP280;9485;49.386;8.674;2022-08-11T07:58:42;100844.09;;;36.02
18713;BMP280;9485;49.386;8.674;2022-08-11T08:04:21;100853.81;;;36.21
18713;BMP280;9485;49.386;8.674;2022-08-11T08:10:02;100855.78;;;36.65
18713;BMP280;9485;49.386;8.674;2022-08-11T08:15:42;100861.59;;;37.15
18713;BMP280;9485;49.386;8.674;2022-08-11T08:21:22;100862.00;;;37.25
18713;BMP280;9485;49.386;8.674;2022-08-11T08:26:45;100855.28;;;37.40
18713;BMP280;9485;49.386;8.674;2022-08-11T08:32:20;100859.09;;;38.18
18713;BMP280;9485;49.386;8.674;2022-08-11T08:37:41;100861.28;;;39.01
18713;BMP280;9485;49.386;8.674;2022-08-11T08:43:09;100855.66;;;39.54
18713;BMP280;9485;49.386;8.674;2022-08-11T08:48:34;100851.13;;;39.51
18713;BMP280;9485;49.386;8.674;2022-08-11T08:54:00;100864.53;;;39.79
18713;BMP280;9485;49.386;8.674;2022-08-11T08:59:25;100860.56;;;39.92
18713;BMP280;9485;49.386;8.674;2022-08-11T09:04:47;100846.13;;;39.81
18713;BMP280;9485;49.386;8.674;2022-08-11T09:10:10;100857.25;;;39.82
18713;BMP280;9485;49.386;8.674;2022-08-11T09:15:33;100842.59;;;40.11
18713;BMP280;9485;49.386;8.674;2022-08-11T09:20:56;100849.47;;;40.18
18713;BMP280;9485;49.386;8.674;2022-08-11T09:26:18;100856.19;;;40.20
18713;BMP280;9485;49.386;8.674;2022-08-11T09:31:59;100850.00;;;39.87
18713;BMP280;9485;49.386;8.674;2022-08-11T09:37:21;100845.03;;;38.79
18713;BMP280;9485;49.386;8.674;2022-08-11T09:43:04;100841.03;;;38.30
18713;BMP280;9485;49.386;8.674;2022-08-11T09:48:46;100833.78;;;38.33
18713;BMP280;9485;49.386;8.674;2022-08-11T09:54:07;100825.44;;;38.68
18713;BMP280;9485;49.386;8.674;2022-08-11T09:59:29;100825.72;;;38.54
18713;BMP280;9485;49.386;8.674;2022-08-11T10:04:56;100817.75;;;38.80
18713;BMP280;9485;49.386;8.674;2022-08-11T10:10:38;100838.13;;;39.15
18713;BMP280;9485;49.386;8.674;2022-08-11T10:16:03;100829.53;;;39.23
18713;BMP280;9485;49.386;8.674;2022-08-11T10:21:35;100820.06;;;39.50
18713;BMP280;9485;49.386;8.674;2022-08-11T10:26:57;100797.94;;;39.51
18713;BMP280;9485;49.386;8.674;2022-08-11T10:32:22;100802.41;;;39.52
18713;BMP280;9485;49.386;8.674;2022-08-11T10:38:04;100798.22;;;39.37
18713;BMP280;9485;49.386;8.674;2022-08-11T10:43:25;100791.72;;;39.66
18713;BMP280;9485;49.386;8.674;2022-08-11T10:48:46;100780.00;;;40.21
18713;BMP280;9485;49.386;8.674;2022-08-11T10:54:09;100782.19;;;40.46
18713;BMP280;9485;49.386;8.674;2022-08-11T10:59:48;100773.50;;;40.26
18713;BMP280;9485;49.386;8.674;2022-08-11T11:05:17;100770.47;;;40.24
18713;BMP280;9485;49.386;8.674;2022-08-11T11:10:41;100748.66;;;40.10
18713;BMP280;9485;49.386;8.674;2022-08-11T11:16:02;100753.53;;;39.74
18713;BMP280;9485;49.386;8.674;2022-08-11T11:21:41;100740.44;;;40.06
18713;BMP280;9485;49.386;8.674;2022-08-11T11:27:17;100731.94;;;40.48
18713;BMP280;9485;49.386;8.674;2022-08-11T11:32:48;100718.22;;;40.62
18713;BMP280;9485;49.386;8.674;2022-08-11T11:38:16;100708.66;;;40.95
18713;BMP280;9485;49.386;8.674;2022-08-11T11:43:39;100723.16;;;41.12
18713;BMP280;9485;49.386;8.674;2022-08-11T11:49:02;100716.28;;;40.73
18713;BMP280;9485;49.386;8.674;2022-08-11T11:54:30;100704.31;;;40.39
18713;BMP280;9485;49.386;8.674;2022-08-11T11:59:54;100689.78;;;40.49
18713;BMP280;9485;49.386;8.674;2022-08-11T12:05:35;100697.88;;;40.76
18713;BMP280;9485;49.386;8.674;2022-08-11T12:10:59;100680.00;;;40.72
18713;BMP280;9485;49.386;8.674;2022-08-11T12:16:44;100663.78;;;41.08
18713;BMP280;9485;49.386;8.674;2022-08-11T12:22:05;100681.84;;;41.20
18713;BMP280;9485;49.386;8.674;2022-08-11T12:27:44;100659.59;;;40.86
18713;BMP280;9485;49.386;8.674;2022-08-11T12:33:07;100659.41;;;40.47
18713;BMP280;9485;49.386;8.674;2022-08-11T12:38:29;100659.75;;;40.31
18713;BMP280;9485;49.386;8.674;2022-08-11T12:43:52;100651.13;;;40.14
18713;BMP280;9485;49.386;8.674;2022-08-11T12:49:37;100639.41;;;40.18
18713;BMP280;9485;49.386;8.674;2022-08-11T12:55:22;100640.72;;;40.70
18713;BMP280;9485;49.386;8.674;2022-08-11T13:00:58;100626.75;;;41.07
18713;BMP280;9485;49.386;8.674;2022-08-11T13:06:40;100621.63;;;41.45
18713;BMP280;9485;49.386;8.674;2022-08-11T13:12:02;100617.00;;;42.15
18713;BMP280;9485;49.386;8.674;2022-08-11T13:17:42;100616.72;;;42.93
18713;BMP280;9485;49.386;8.674;2022-08-11T13:23:05;100622.00;;;43.58
18713;BMP280;9485;49.386;8.674;2022-08-11T13:28:26;100609.88;;;44.15
18713;BMP280;9485;49.386;8.674;2022-08-11T13:33:49;100613.28;;;44.63
18713;BMP280;9485;49.386;8.674;2022-08-11T13:39:12;100592.41;;;44.61
18713;BMP280;9485;49.386;8.674;2022-08-11T13:44:36;100608.31;;;44.04
18713;BMP280;9485;49.386;8.674;2022-08-11T13:49:57;100579.16;;;43.16
18713;BMP280;9485;49.386;8.674;2022-08-11T13:55:20;100583.34;;;42.43
18713;BMP280;9485;49.386;8.674;2022-08-11T14:00:47;100581.31;;;42.11
18713;BMP280;9485;49.386;8.674;2022-08-11T14:06:09;100574.09;;;41.80
18713;BMP280;9485;49.386;8.674;2022-08-11T14:11:33;100565.41;;;41.90
18713;BMP280;9485;49.386;8.674;2022-08-11T14:17:14;100561.09;;;41.97
18713;BMP280;9485;49.386;8.674;2022-08-11T14:22:40;100561.78;;;41.94
18713;BMP280;9485;49.386;8.674;2022-08-11T14:28:04;100550.22;;;41.70
18713;BMP280;9485;49.386;8.674;2022-08-11T14:33:26;100537.81;;;41.41
18713;BMP280;9485;49.386;8.674;2022-08-11T14:38:48;100532.63;;;41.04
18713;BMP280;9485;49.386;8.674;2022-08-11T14:44:11;100528.84;;;40.66
18713;BMP280;9485;49.386;8.674;2022-08-11T14:49:52;100520.84;;;40.37
18713;BMP280;9485;49.386;8.674;2022-08-11T14:55:14;100523.22;;;39.84
18713;BMP280;9485;49.386;8.674;2022-08-11T15:00:57;100506.19;;;39.28
18713;BMP280;9485;49.386;8.674;2022-08-11T15:06:19;100508.75;;;38.87
18713;BMP280;9485;49.386;8.674;2022-08-11T15:11:40;100507.53;;;38.47
18713;BMP280;9485;49.386;8.674;2022-08-11T15:17:22;100495.81;;;37.81
18713;BMP280;9485;49.386;8.674;2022-08-11T15:22:43;100497.59;;;37.26
18713;BMP280;9485;49.386;8.674;2022-08-11T15:28:24;100489.50;;;36.66
18713;BMP280;9485;49.386;8.674;2022-08-11T15:34:09;100485.84;;;36.29
18713;BMP280;9485;49.386;8.674;2022-08-11T15:39:52;100474.94;;;35.95
18713;BMP280;9485;49.386;8.674;2022-08-11T15:45:38;100467.81;;;35.65
18713;BMP280;9485;49.386;8.674;2022-08-11T15:51:16;100474.84;;;35.40
18713;BMP280;9485;49.386;8.674;2022-08-11T15:56:45;100469.69;;;35.23
18713;BMP280;9485;49.386;8.674;2022-08-11T16:02:12;100473.56;;;34.95
18713;BMP280;9485;49.386;8.674;2022-08-11T16:07:54;100465.03;;;34.68
18713;BMP280;9485;49.386;8.674;2022-08-11T16:13:17;100454.44;;;34.46
18713;BMP280;9485;49.386;8.674;2022-08-11T16:18:57;100458.06;;;34.29
18713;BMP280;9485;49.386;8.674;2022-08-11T16:24:23;100447.47;;;34.22
18713;BMP280;9485;49.386;8.674;2022-08-11T16:29:46;100450.72;;;34.13
18713;BMP280;9485;49.386;8.674;2022-08-11T16:35:11;100446.81;;;34.08
18713;BMP280;9485;49.386;8.674;2022-08-11T16:40:53;100441.78;;;33.95
18713;BMP280;9485;49.386;8.674;2022-08-11T16:46:18;100446.13;;;33.79
18713;BMP280;9485;49.386;8.674;2022-08-11T16:51:58;100442.50;;;33.65
18713;BMP280;9485;49.386;8.674;2022-08-11T16:57:25;100429.75;;;33.59
18713;BMP280;9485;49.386;8.674;2022-08-11T17:03:04;100432.91;;;33.49
18713;BMP280;9485;49.386;8.674;2022-08-11T17:08:49;100427.94;;;33.38
18713;BMP280;9485;49.386;8.674;2022-08-11T17:14:37;100422.28;;;33.27
18713;BMP280;9485;49.386;8.674;2022-08-11T17:20:04;100440.06;;;33.17
18713;BMP280;9485;49.386;8.674;2022-08-11T17:25:30;100427.88;;;33.07
18713;BMP280;9485;49.386;8.674;2022-08-11T17:30:59;100423.09;;;33.00
18713;BMP280;9485;49.386;8.674;2022-08-11T17:36:40;100420.09;;;32.85
18713;BMP280;9485;49.386;8.674;2022-08-11T17:42:03;100423.34;;;32.78
18713;BMP280;9485;49.386;8.674;2022-08-11T17:47:45;100430.72;;;32.65
18713;BMP280;9485;49.386;8.674;2022-08-11T17:53:29;100431.38;;;32.50
18713;BMP280;9485;49.386;8.674;2022-08-11T17:59:09;100445.25;;;32.36
18713;BMP280;9485;49.386;8.674;2022-08-11T18:04:51;100438.41;;;32.18
18713;BMP280;9485;49.386;8.674;2022-08-11T18:10:12;100443.47;;;32.05
18713;BMP280;9485;49.386;8.674;2022-08-11T18:15:50;100445.47;;;31.89
18713;BMP280;9485;49.386;8.674;2022-08-11T18:21:31;100451.69;;;31.70
18713;BMP280;9485;49.386;8.674;2022-08-11T18:27:14;100448.88;;;31.47
18713;BMP280;9485;49.386;8.674;2022-08-11T18:32:57;100464.94;;;31.34
18713;BMP280;9485;49.386;8.674;2022-08-11T18:38:41;100457.69;;;31.11
18713;BMP280;9485;49.386;8.674;2022-08-11T18:44:25;100451.16;;;30.87
18713;BMP280;9485;49.386;8.674;2022-08-11T18:50:08;100457.16;;;30.66
18713;BMP280;9485;49.386;8.674;2022-08-11T18:55:51;100467.41;;;30.45
18713;BMP280;9485;49.386;8.674;2022-08-11T19:01:33;100464.41;;;30.20
18713;BMP280;9485;49.386;8.674;2022-08-11T19:07:17;100469.31;;;29.94
18713;BMP280;9485;49.386;8.674;2022-08-11T19:12:59;100466.69;;;29.66
18713;BMP280;9485;49.386;8.674;2022-08-11T19:18:39;100476.63;;;29.40
18713;BMP280;9485;49.386;8.674;2022-08-11T19:24:18;100479.28;;;29.15
18713;BMP280;9485;49.386;8.674;2022-08-11T19:29:59;100485.44;;;28.89
18713;BMP280;9485;49.386;8.674;2022-08-11T19:35:39;100490.19;;;28.64
18713;BMP280;9485;49.386;8.674;2022-08-11T19:41:21;100482.56;;;28.38
18713;BMP280;9485;49.386;8.674;2022-08-11T19:47:01;100480.94;;;28.16
18713;BMP280;9485;49.386;8.674;2022-08-11T19:52:42;100477.81;;;27.93
18713;BMP280;9485;49.386;8.674;2022-08-11T19:58:21;100482.31;;;27.75
18713;BMP280;9485;49.386;8.674;2022-08-11T20:04:02;100487.53;;;27.58
18713;BMP280;9485;49.386;8.674;2022-08-11T20:09:43;100470.75;;;27.37
18713;BMP280;9485;49.386;8.674;2022-08-11T20:15:25;100476.88;;;27.23
18713;BMP280;9485;49.386;8.674;2022-08-11T20:21:08;100479.50;;;27.09
18713;BMP280;9485;49.386;8.674;2022-08-11T20:26:48;100477.16;;;26.98
18713;BMP280;9485;49.386;8.674;2022-08-11T20:32:27;100478.53;;;26.88
18713;BMP280;9485;49.386;8.674;2022-08-11T20:38:10;100489.34;;;26.78
18713;BMP280;9485;49.386;8.674;2022-08-11T20:43:50;100491.28;;;26.66
18713;BMP280;9485;49.386;8.674;2022-08-11T20:49:32;100492.66;;;26.56
18713;BMP280;9485;49.386;8.674;2022-08-11T20:55:14;100491.72;;;26.44
18713;BMP280;9485;49.386;8.674;2022-08-11T21:00:53;100488.94;;;26.36
18713;BMP280;9485;49.386;8.674;2022-08-11T21:06:34;100489.97;;;26.31
18713;BMP280;9485;49.386;8.674;2022-08-11T21:12:15;100493.75;;;26.24
18713;BMP280;9485;49.386;8.674;2022-08-11T21:17:55;100493.44;;;26.20
18713;BMP280;9485;49.386;8.674;2022-08-11T21:23:39;100488.38;;;26.11
18713;BMP280;9485;49.386;8.674;2022-08-11T21:29:22;100485.72;;;25.96
18713;BMP280;9485;49.386;8.674;2022-08-11T21:35:01;100487.16;;;25.79
18713;BMP280;9485;49.386;8.674;2022-08-11T21:40:41;100487.16;;;25.62
18713;BMP280;9485;49.386;8.674;2022-08-11T21:46:22;100488.59;;;25.44
18713;BMP280;9485;49.386;8.674;2022-08-11T21:52:00;100485.28;;;25.30
18713;BMP280;9485;49.386;8.674;2022-08-11T21:57:39;100484.91;;;25.17
18713;BMP280;9485;49.386;8.674;2022-08-11T22:03:20;100486.56;;;25.03
18713;BMP280;9485;49.386;8.674;2022-08-11T22:08:58;100488.44;;;24.91
18713;BMP280;9485;49.386;8.674;2022-08-11T22:14:37;100473.16;;;24.81
18713;BMP280;9485;49.386;8.674;2022-08-11T22:20:17;100488.63;;;24.76
18713;BMP280;9485;49.386;8.674;2022-08-11T22:25:58;100481.88;;;24.74
18713;BMP280;9485;49.386;8.674;2022-08-11T22:31:38;100471.78;;;24.82
18713;BMP280;9485;49.386;8.674;2022-08-11T22:37:20;100505.38;;;25.28
18713;BMP280;9485;49.386;8.674;2022-08-11T22:42:59;100502.47;;;25.72
18713;BMP280;9485;49.386;8.674;2022-08-11T22:48:39;100500.28;;;26.15
18713;BMP280;9485;49.386;8.674;2022-08-11T22:54:21;100501.94;;;26.54
18713;BMP280;9485;49.386;8.674;2022-08-11T23:00:00;100499.44;;;26.86
18713;BMP280;9485;49.386;8.674;2022-08-11T23:05:40;100502.50;;;27.07
18713;BMP280;9485;49.386;8.674;2022-08-11T23:11:21;100504.50;;;27.24
18713;BMP280;9485;49.386;8.674;2022-08-11T23:16:59;100495.03;;;27.33
18713;BMP280;9485;49.386;8.674;2022-08-11T23:22:39;100505.06;;;27.50
18713;BMP280;9485;49.386;8.674;2022-08-11T23:28:20;100503.41;;;27.57
18713;BMP280;9485;49.386;8.674;2022-08-11T23:34:02;100504.31;;;27.59
18713;BMP280;9485;49.386;8.674;2022-08-11T23:39:40;100500.22;;;27.62
18713;BMP280;9485;49.386;8.674;2022-08-11T23:45:21;100504.50;;;27.61
18713;BMP280;9485;49.386;8.674;2022-08-11T23:51:00;100495.78;;;27.61
18713;BMP280;9485;49.386;8.674;2022-08-11T23:56:40;100501.72;;;27.63
